Airfield :
LOGIN :

Register | Disclaimer

   EN    FR    IT 

 










Legend :    VFR   Marginal VFR   IFR   Intensive IFR   Very Intensive IFR
Visi :
Ceiling :
>= 8 km
>= 3000ft
5 to 8 km
1000 to 3000 ft
1500m to 5 km
500 to 1000 ft
800 to 1500m
200 to 500 ft
< 800m
< 200 ft
Symbols :   Thunderstorms  Fog  Heavy snow  Heavy precipitations  Wind > 20 kt
SIGMETs :     Misc.  Thunderstorms  Icing  Turbulence  Mountain Waves  Volcanic Ashes







- Airport Elevation : 256 ft
- IATA code : KUN


EYKA - Kaunas

CURRENT METAR :
  • 181550Z 22008KT 190V250 9999 VCSH SCT057CB BKN077 08/M03 Q1008 R08/290095

EXPIRED METARs :
  • 181520Z 23011KT 190V260 CAVOK 08/M02 Q1008 R08/290095
  • 181450Z 23014KT 200V260 9999 SCT049 BKN068 08/M02 Q1008 R08/290095
  • 181420Z 23013KT 200V260 CAVOK 09/M02 Q1007 R08/290095
  • 181350Z 23012KT 200V260 CAVOK 09/M02 Q1007 R08/290095
  • 181320Z 23012KT 200V260 9999 BKN048 09/M02 Q1007 R08/290095

TAF COR TAF EYKA
Valid from the 18 at 12:00 until the 19 at 12:00 UTC


181344Z 1812/1912 24014G24KT 9000 BKN020
TEMPO 1812/1820 -SHRA BKN015CB
TEMPO 1820/1906 3000 -RA BR BKN010
TEMPO 1906/1912 1500 SHSNRA BKN005 BKN015CB
No reported NOTAMs for that airfield.



MET'MAP, your aeronautical weather chart ! - Copyright ORBIFLY December 2007 - Disclaimer

ORBIFLY MET'MAP TEAM :

Programming & Development : Alexandra Zaïnal
Concept & Development : Baudouin d'Aumeries
Co-Development & Prog : Marc-Olivier Méhu
Technical & hardware support : Manuel Goepfert

Contact : metmap@orbifly.com




SOURCES & CREDITS :

   NOAA